Time;durP1;ratioP1;P1;durP2;ratioP2;P2;SDS_P1;SDS_P2;PMS_P1;PMS_P2;Temp;Humidity;BMP_temperature;BMP_pressure;BME280_temperature;BME280_humidity;BME280_pressure;Samples;Min_cycle;Max_cycle;Signal;HPM_P1;HPM_P2
2022/07/04 00:00:12;;;;;;;2.97;2.80;;;22.40;85.80;;;;;;4994017;28;20185;-85
2022/07/04 00:02:40;;;;;;;7.23;2.30;;;22.30;86.10;;;;;;4994765;28;20467;-86
2022/07/04 00:05:09;;;;;;;2.90;2.60;;;22.30;86.40;;;;;;4994289;28;20914;-85
2022/07/04 00:07:39;;;;;;;5.33;2.53;;;22.20;86.30;;;;;;5012066;28;20472;-86
2022/07/04 00:10:05;;;;;;;3.73;2.53;;;22.20;86.60;;;;;;4994607;28;20551;-85
2022/07/04 00:12:31;;;;;;;3.00;2.27;;;22.20;86.70;;;;;;4994226;28;20793;-86
2022/07/04 00:14:57;;;;;;;4.00;2.37;;;22.20;86.80;;;;;;4994177;28;20456;-85
2022/07/04 00:17:22;;;;;;;5.20;3.10;;;22.10;87.00;;;;;;4992788;28;20266;-85
2022/07/04 00:19:48;;;;;;;2.80;2.60;;;22.10;87.10;;;;;;4994779;28;20188;-86
2022/07/04 00:22:13;;;;;;;3.37;2.53;;;22.00;87.30;;;;;;4998629;28;20207;-85
2022/07/04 00:24:39;;;;;;;3.80;2.50;;;22.00;87.60;;;;;;5011603;28;20256;-86
2022/07/04 00:27:05;;;;;;;5.73;2.90;;;21.90;87.80;;;;;;4993928;28;20415;-84
2022/07/04 00:29:31;;;;;;;2.50;2.23;;;21.80;87.90;;;;;;4994138;28;20173;-85
2022/07/04 00:31:56;;;;;;;3.07;2.70;;;21.80;88.20;;;;;;4993936;28;20177;-85
2022/07/04 00:34:22;;;;;;;3.83;2.40;;;21.80;88.20;;;;;;4993771;28;20205;-84
2022/07/04 00:36:47;;;;;;;3.53;2.60;;;21.70;88.30;;;;;;4993951;28;20185;-84
2022/07/04 00:39:13;;;;;;;4.20;3.10;;;21.60;88.70;;;;;;4993563;28;20177;-85
2022/07/04 00:41:39;;;;;;;6.77;2.93;;;21.60;89.00;;;;;;4994757;28;20639;-84
2022/07/04 00:44:06;;;;;;;6.67;3.33;;;21.50;89.40;;;;;;4994550;28;20264;-85
2022/07/04 00:46:32;;;;;;;2.90;2.70;;;21.30;90.00;;;;;;4994371;28;20182;-85
2022/07/04 00:48:58;;;;;;;3.30;3.10;;;21.30;90.60;;;;;;4993742;28;20843;-83
2022/07/04 00:51:24;;;;;;;3.20;2.90;;;21.10;91.20;;;;;;4993438;28;20181;-83
2022/07/04 00:53:52;;;;;;;4.47;3.20;;;21.00;91.60;;;;;;5011232;28;20424;-83
2022/07/04 00:56:17;;;;;;;5.40;3.70;;;21.00;91.80;;;;;;4993286;28;20624;-84
2022/07/04 00:58:43;;;;;;;5.43;3.57;;;20.90;92.30;;;;;;5011079;28;20443;-85
2022/07/04 01:01:09;;;;;;;7.20;4.20;;;20.80;92.70;;;;;;4977075;28;20234;-84
2022/07/04 01:03:34;;;;;;;4.93;4.37;;;20.70;93.40;;;;;;4983723;28;20216;-84
2022/07/04 01:06:00;;;;;;;6.73;5.07;;;20.70;93.70;;;;;;4993379;28;20264;-84
2022/07/04 01:08:26;;;;;;;6.60;5.23;;;20.60;94.10;;;;;;4999846;28;20205;-84
2022/07/04 01:10:52;;;;;;;7.77;4.70;;;20.50;94.50;;;;;;4996172;28;20420;-85
2022/07/04 01:13:24;;;;;;;7.13;4.70;;;20.40;95.00;;;;;;4993047;28;20188;-84
2022/07/04 01:15:50;;;;;;;6.63;5.10;;;20.30;95.20;;;;;;4993426;28;20679;-84
2022/07/04 01:18:17;;;;;;;7.47;5.60;;;20.20;95.80;;;;;;4993374;28;20965;-84
2022/07/04 01:20:43;;;;;;;6.63;5.27;;;20.20;96.00;;;;;;4993538;28;20420;-84
2022/07/04 01:23:09;;;;;;;7.50;5.20;;;20.10;96.20;;;;;;4993366;28;20551;-84
2022/07/04 01:25:35;;;;;;;5.67;5.03;;;20.00;96.50;;;;;;4993144;28;20551;-84
2022/07/04 01:28:01;;;;;;;7.80;5.97;;;20.00;96.70;;;;;;5002540;28;20197;-83
2022/07/04 01:30:28;;;;;;;6.97;5.30;;;19.90;96.80;;;;;;4993402;28;20606;-83
2022/07/04 01:32:54;;;;;;;8.93;4.97;;;19.90;97.10;;;;;;4993134;28;20929;-84
2022/07/04 01:35:20;;;;;;;7.60;4.63;;;19.80;97.30;;;;;;4993637;28;20415;-84
2022/07/04 01:37:45;;;;;;;8.63;5.30;;;19.70;97.30;;;;;;5011060;28;20197;-83
2022/07/04 01:40:12;;;;;;;7.90;5.50;;;19.60;97.30;;;;;;4992980;28;20515;-83
2022/07/04 01:42:41;;;;;;;6.57;4.60;;;19.60;97.30;;;;;;4993277;28;20679;-84
2022/07/04 01:45:08;;;;;;;8.33;5.20;;;19.60;97.30;;;;;;4993664;28;20416;-84
2022/07/04 01:47:35;;;;;;;7.60;5.00;;;19.60;97.30;;;;;;4993486;28;20475;-84
2022/07/04 01:50:00;;;;;;;5.90;4.90;;;19.50;97.30;;;;;;4993507;28;20412;-84
2022/07/04 01:52:26;;;;;;;7.57;5.10;;;19.50;97.30;;;;;;4993191;28;20423;-85
2022/07/04 01:54:52;;;;;;;7.77;5.10;;;19.50;97.30;;;;;;4993680;28;20565;-83
2022/07/04 01:57:17;;;;;;;5.90;5.23;;;19.40;97.30;;;;;;4993208;28;20220;-84
2022/07/04 02:02:27;;;;;;;5.73;4.60;;;19.40;97.30;;;;;;5012545;28;20228;-84
2022/07/04 02:04:53;;;;;;;6.60;4.73;;;19.40;97.30;;;;;;4996334;28;20795;-83
2022/07/04 02:07:19;;;;;;;5.70;4.27;;;19.30;97.30;;;;;;4995882;28;20205;-84
2022/07/04 02:09:45;;;;;;;6.67;4.20;;;19.30;97.30;;;;;;4996428;28;20192;-82
2022/07/04 02:14:54;;;;;;;4.97;4.00;;;19.30;97.30;;;;;;5014468;28;20252;-84
2022/07/04 02:17:21;;;;;;;4.50;4.00;;;19.30;97.30;;;;;;4996331;28;20871;-84
2022/07/04 02:19:47;;;;;;;8.00;4.83;;;19.30;97.30;;;;;;4991900;28;20189;-83
2022/07/04 02:22:16;;;;;;;6.27;4.80;;;19.30;97.30;;;;;;4996443;28;20623;-84
2022/07/04 02:24:42;;;;;;;20.00;4.80;;;19.30;97.30;;;;;;4996978;28;20435;-83
2022/07/04 02:27:08;;;;;;;7.27;4.53;;;19.20;97.30;;;;;;4997007;28;20498;-83
2022/07/04 02:29:34;;;;;;;7.80;4.90;;;19.20;97.30;;;;;;4996533;28;20854;-83
2022/07/04 02:32:00;;;;;;;5.20;4.40;;;19.20;97.30;;;;;;4996314;28;20537;-84
2022/07/04 02:34:26;;;;;;;5.43;4.10;;;19.10;97.30;;;;;;4996406;28;20419;-84
2022/07/04 02:36:52;;;;;;;7.10;4.77;;;19.10;97.30;;;;;;5008694;28;20244;-84
2022/07/04 02:39:18;;;;;;;7.60;4.93;;;19.10;97.30;;;;;;4995909;28;20961;-84
2022/07/04 02:41:44;;;;;;;8.23;4.60;;;19.00;97.30;;;;;;4996215;28;20177;-84
2022/07/04 02:44:10;;;;;;;9.13;4.57;;;19.00;97.30;;;;;;4995964;28;20533;-84
2022/07/04 02:46:36;;;;;;;9.27;5.90;;;19.00;97.30;;;;;;4995455;28;20547;-83
2022/07/04 02:49:03;;;;;;;7.00;4.43;;;19.00;97.30;;;;;;4995720;28;20185;-82
2022/07/04 02:51:29;;;;;;;5.30;5.00;;;19.00;97.30;;;;;;5008394;28;20173;-83
2022/07/04 02:53:55;;;;;;;7.67;5.13;;;18.90;97.30;;;;;;4995300;28;20428;-84
2022/07/04 02:56:20;;;;;;;5.60;5.13;;;18.90;97.30;;;;;;4982887;28;20460;-83
2022/07/04 02:58:47;;;;;;;7.67;5.60;;;18.90;97.30;;;;;;4995149;28;20468;-83
2022/07/04 03:01:13;;;;;;;8.37;6.10;;;18.80;97.30;;;;;;4992422;28;20253;-84
2022/07/04 03:03:39;;;;;;;7.43;5.57;;;18.80;97.30;;;;;;4986154;28;20498;-83
2022/07/04 03:06:08;;;;;;;6.20;5.00;;;18.70;97.30;;;;;;4995323;28;20185;-83
2022/07/04 03:08:34;;;;;;;6.50;5.83;;;18.70;97.30;;;;;;4995159;28;20444;-83
2022/07/04 03:11:00;;;;;;;9.30;5.60;;;18.70;97.30;;;;;;4994640;28;20419;-83
2022/07/04 03:13:26;;;;;;;5.50;5.00;;;18.60;97.30;;;;;;4994132;28;20432;-83
2022/07/04 03:15:52;;;;;;;10.47;6.10;;;18.60;97.30;;;;;;4995068;28;20432;-83
2022/07/04 03:18:18;;;;;;;7.40;5.20;;;18.60;97.30;;;;;;4984826;28;20444;-83
2022/07/04 03:20:44;;;;;;;9.80;5.30;;;18.60;97.30;;;;;;4989715;28;20404;-83
2022/07/04 03:23:10;;;;;;;6.27;5.13;;;18.60;97.30;;;;;;4976820;28;20461;-83
2022/07/04 03:25:36;;;;;;;9.33;5.70;;;18.60;97.30;;;;;;4991954;28;20209;-82
2022/07/04 03:28:01;;;;;;;6.07;5.27;;;18.60;97.30;;;;;;5003849;28;20563;-83
2022/07/04 03:30:27;;;;;;;9.20;6.13;;;18.60;97.30;;;;;;4994857;28;20181;-83
2022/07/04 03:32:53;;;;;;;6.60;5.27;;;18.60;97.30;;;;;;5012212;28;20189;-82
2022/07/04 03:35:19;;;;;;;7.30;5.53;;;18.60;97.30;;;;;;4994705;28;20264;-82
2022/07/04 03:37:44;;;;;;;11.40;5.93;;;18.50;97.30;;;;;;4994420;28;20444;-82
2022/07/04 03:40:10;;;;;;;5.77;5.50;;;18.50;97.30;;;;;;4994388;28;20181;-83
2022/07/04 03:42:36;;;;;;;8.07;5.67;;;18.40;97.30;;;;;;4994590;28;20555;-83
2022/07/04 03:45:02;;;;;;;10.43;5.33;;;18.40;97.30;;;;;;4994848;28;20183;-82
2022/07/04 03:47:28;;;;;;;9.13;5.43;;;18.40;97.30;;;;;;5012473;28;20659;-83
2022/07/04 03:49:53;;;;;;;8.00;6.37;;;18.40;97.30;;;;;;4994511;28;20427;-83
2022/07/04 03:52:19;;;;;;;5.03;4.73;;;18.40;97.30;;;;;;4994931;28;20269;-82
2022/07/04 03:54:57;;;;;;;5.53;4.83;;;18.40;97.30;;;;;;4991139;28;20181;-83
2022/07/04 03:57:23;;;;;;;5.40;5.00;;;18.40;97.30;;;;;;4996244;28;20208;-83
2022/07/04 03:59:49;;;;;;;7.47;4.67;;;18.40;97.30;;;;;;4993095;28;20421;-84
2022/07/04 04:02:17;;;;;;;4.70;4.20;;;18.40;97.30;;;;;;4994241;28;20534;-83
2022/07/04 04:07:29;;;;;;;6.23;4.20;;;18.40;97.30;;;;;;5012151;28;20551;-83
2022/07/04 04:09:59;;;;;;;7.40;4.70;;;18.50;97.30;;;;;;4994274;28;20776;-83
2022/07/04 04:12:26;;;;;;;8.00;4.17;;;18.50;97.30;;;;;;4985045;28;20519;-83
2022/07/04 04:14:52;;;;;;;6.27;4.27;;;18.40;97.30;;;;;;4994741;28;20424;-84
2022/07/04 04:17:17;;;;;;;5.27;3.80;;;18.40;97.30;;;;;;4994059;28;20539;-84
2022/07/04 04:19:43;;;;;;;5.90;3.93;;;18.40;97.30;;;;;;4994264;28;20189;-85
2022/07/04 04:22:09;;;;;;;9.60;4.30;;;18.40;97.30;;;;;;4993150;28;20224;-83
2022/07/04 04:24:35;;;;;;;6.37;4.20;;;18.30;97.30;;;;;;4994436;28;20196;-84
2022/07/04 04:27:00;;;;;;;6.77;3.90;;;18.30;97.30;;;;;;4993317;28;20432;-84
2022/07/04 04:29:28;;;;;;;5.57;3.97;;;18.30;97.30;;;;;;4993448;28;20190;-84
2022/07/04 04:31:54;;;;;;;4.00;3.77;;;18.30;97.30;;;;;;4991525;28;20403;-84
2022/07/04 04:34:19;;;;;;;5.70;3.80;;;18.30;97.30;;;;;;5011487;28;20786;-83
2022/07/04 04:36:45;;;;;;;5.47;3.70;;;18.30;97.30;;;;;;4993571;28;20181;-84
2022/07/04 04:39:10;;;;;;;9.33;4.50;;;18.40;97.30;;;;;;4993090;28;20177;-84
2022/07/04 04:41:36;;;;;;;4.70;3.70;;;18.40;97.30;;;;;;4993943;28;20181;-84
2022/07/04 04:44:01;;;;;;;4.20;3.60;;;18.40;97.30;;;;;;4994201;28;20208;-84
2022/07/04 04:46:27;;;;;;;4.70;3.20;;;18.40;97.30;;;;;;4993422;28;20185;-84
2022/07/04 04:48:53;;;;;;;6.43;3.00;;;18.40;97.30;;;;;;4995167;28;20208;-84
2022/07/04 04:51:18;;;;;;;4.80;3.43;;;18.50;97.30;;;;;;4996240;28;20276;-83
2022/07/04 04:53:44;;;;;;;6.33;3.70;;;18.50;97.30;;;;;;4996312;28;20192;-83
2022/07/04 04:56:09;;;;;;;3.40;3.20;;;18.50;97.30;;;;;;4996105;28;20185;-83
2022/07/04 04:58:35;;;;;;;3.43;2.90;;;18.50;97.30;;;;;;4996350;28;20643;-83
2022/07/04 05:01:02;;;;;;;5.13;3.43;;;18.50;97.30;;;;;;4995602;28;20592;-84
2022/07/04 05:03:28;;;;;;;3.87;3.30;;;18.50;97.30;;;;;;4995504;28;20744;-84
2022/07/04 05:05:53;;;;;;;9.73;3.30;;;18.50;97.30;;;;;;5013063;28;20416;-84
2022/07/04 05:08:19;;;;;;;4.73;3.40;;;18.50;97.30;;;;;;4995580;28;20956;-84
2022/07/04 05:10:44;;;;;;;10.13;3.47;;;18.60;97.30;;;;;;4997950;28;20193;-83
2022/07/04 05:13:10;;;;;;;3.13;2.93;;;18.60;97.30;;;;;;4995816;28;20189;-83
2022/07/04 05:15:35;;;;;;;3.80;3.13;;;18.60;97.30;;;;;;4983815;28;20857;-83
2022/07/04 05:18:01;;;;;;;3.80;2.90;;;18.60;97.30;;;;;;4996005;28;20254;-83
2022/07/04 05:20:27;;;;;;;6.03;3.43;;;18.60;97.30;;;;;;5000311;28;20670;-83
2022/07/04 05:22:52;;;;;;;4.17;2.83;;;18.60;97.30;;;;;;4996277;28;20201;-84
2022/07/04 05:25:18;;;;;;;3.63;2.73;;;18.70;97.30;;;;;;4996106;28;20184;-83
2022/07/04 05:27:43;;;;;;;3.93;2.83;;;18.70;97.30;;;;;;5013363;28;20228;-84
2022/07/04 05:30:09;;;;;;;4.27;2.80;;;18.70;97.30;;;;;;4996135;28;20181;-84
2022/07/04 05:32:41;;;;;;;3.80;2.93;;;18.70;97.30;;;;;;4995770;28;20235;-84
2022/07/04 05:35:08;;;;;;;3.17;2.60;;;18.70;97.30;;;;;;4995709;28;20434;-84
2022/07/04 05:37:33;;;;;;;5.00;2.87;;;18.70;97.30;;;;;;4997604;28;20448;-84
2022/07/04 05:39:59;;;;;;;3.07;2.23;;;18.80;97.30;;;;;;4986246;28;20479;-83
2022/07/04 05:42:25;;;;;;;3.53;2.57;;;18.80;97.30;;;;;;5016141;28;20461;-84
2022/07/04 05:44:51;;;;;;;4.60;2.57;;;18.90;97.30;;;;;;4994598;28;20624;-84
2022/07/04 05:47:18;;;;;;;3.80;2.70;;;18.90;97.30;;;;;;4996630;28;20448;-84
2022/07/04 05:49:44;;;;;;;3.00;2.50;;;18.90;97.30;;;;;;4997072;28;20185;-84
2022/07/04 05:52:09;;;;;;;7.13;3.07;;;19.00;97.30;;;;;;4997276;28;20861;-85
2022/07/04 05:54:35;;;;;;;3.53;2.20;;;19.00;97.30;;;;;;4997570;28;20177;-84
2022/07/04 05:57:01;;;;;;;6.30;2.50;;;19.00;97.30;;;;;;4996997;28;20197;-84
2022/07/04 05:59:26;;;;;;;4.57;2.67;;;19.10;97.30;;;;;;5009684;28;20272;-84
2022/07/04 06:01:52;;;;;;;2.97;2.60;;;19.10;97.30;;;;;;4996578;28;20709;-84
2022/07/04 06:04:17;;;;;;;3.57;2.67;;;19.10;97.30;;;;;;4997989;28;20272;-83
2022/07/04 06:06:43;;;;;;;4.40;2.80;;;19.20;97.20;;;;;;4997343;28;20185;-83
2022/07/04 06:09:08;;;;;;;6.93;2.73;;;19.20;97.30;;;;;;4997462;28;20208;-82
2022/07/04 06:11:34;;;;;;;6.90;2.70;;;19.30;96.90;;;;;;4997188;28;20192;-84
2022/07/04 06:14:00;;;;;;;4.00;2.57;;;19.30;96.50;;;;;;4997103;28;20220;-84
2022/07/04 06:16:26;;;;;;;4.20;2.20;;;19.30;96.80;;;;;;4984421;28;20944;-84
2022/07/04 06:18:51;;;;;;;5.00;2.30;;;19.30;96.50;;;;;;4995876;28;20640;-84
2022/07/04 06:21:17;;;;;;;6.53;2.40;;;19.30;96.30;;;;;;4996769;28;20639;-84
2022/07/04 06:23:43;;;;;;;4.57;4.00;;;19.40;96.20;;;;;;4999405;28;20587;-83
2022/07/04 06:26:09;;;;;;;4.20;2.17;;;19.40;95.90;;;;;;5002636;28;20208;-83
2022/07/04 06:28:34;;;;;;;4.73;2.20;;;19.40;96.00;;;;;;5002228;28;20205;-84
2022/07/04 06:31:00;;;;;;;5.43;2.70;;;19.40;95.90;;;;;;4997074;28;20422;-83
2022/07/04 06:33:32;;;;;;;7.03;2.40;;;19.40;95.40;;;;;;4997266;28;20176;-84
2022/07/04 06:35:58;;;;;;;3.23;2.37;;;19.50;95.20;;;;;;4997400;28;20272;-83
2022/07/04 06:38:29;;;;;;;4.77;2.33;;;19.50;95.20;;;;;;4997535;28;20515;-84
2022/07/04 06:40:57;;;;;;;2.37;1.80;;;19.50;94.80;;;;;;4997408;28;20412;-83
2022/07/04 06:43:24;;;;;;;3.40;2.20;;;19.60;94.80;;;;;;5014984;28;20455;-82
2022/07/04 06:45:50;;;;;;;2.37;2.10;;;19.60;94.80;;;;;;4997281;28;20796;-83
2022/07/04 06:48:16;;;;;;;3.40;1.97;;;19.60;94.80;;;;;;5014493;28;20458;-83
2022/07/04 06:50:42;;;;;;;3.63;2.07;;;19.70;94.90;;;;;;4999413;28;20450;-83
2022/07/04 06:53:10;;;;;;;2.83;1.70;;;19.70;94.40;;;;;;4996837;28;20431;-82
2022/07/04 06:55:40;;;;;;;2.60;2.13;;;19.70;94.40;;;;;;4998550;28;20420;-84
2022/07/04 06:58:09;;;;;;;2.70;2.30;;;19.70;93.90;;;;;;4998398;28;20443;-83
2022/07/04 07:00:41;;;;;;;1.87;1.80;;;19.70;93.60;;;;;;4997969;28;20470;-84
2022/07/04 07:03:10;;;;;;;2.10;1.83;;;19.80;93.60;;;;;;4984661;28;20577;-83
2022/07/04 07:05:42;;;;;;;1.70;1.60;;;19.80;92.90;;;;;;4998187;28;20413;-84
2022/07/04 07:08:09;;;;;;;1.63;1.60;;;19.80;92.70;;;;;;4985824;28;20440;-83
2022/07/04 07:10:39;;;;;;;3.20;1.90;;;19.90;91.90;;;;;;4998091;28;20539;-83
2022/07/04 07:13:05;;;;;;;3.83;2.00;;;19.90;92.20;;;;;;4998009;28;20426;-83
2022/07/04 07:15:31;;;;;;;2.90;1.63;;;20.00;91.80;;;;;;4997615;28;20495;-82
2022/07/04 07:18:01;;;;;;;2.13;1.90;;;20.10;91.50;;;;;;4997319;28;20292;-83
2022/07/04 07:20:33;;;;;;;5.50;1.80;;;20.10;91.40;;;;;;4995222;28;20426;-83
2022/07/04 07:23:03;;;;;;;2.53;1.90;;;20.20;90.60;;;;;;4994542;28;20486;-83
2022/07/04 07:25:29;;;;;;;3.53;1.80;;;20.20;89.70;;;;;;4995325;28;20419;-84
2022/07/04 07:27:55;;;;;;;2.03;1.53;;;20.20;89.20;;;;;;5012226;28;21024;-84
2022/07/04 07:30:20;;;;;;;3.20;2.00;;;20.20;89.70;;;;;;4995384;28;20443;-84
2022/07/04 07:32:46;;;;;;;5.10;1.70;;;20.30;89.70;;;;;;4995534;28;20177;-84
2022/07/04 07:35:12;;;;;;;2.73;1.93;;;20.40;89.30;;;;;;4994736;28;20177;-84
2022/07/04 07:37:37;;;;;;;1.97;1.90;;;20.50;88.90;;;;;;4995695;28;20205;-83
2022/07/04 07:40:03;;;;;;;2.80;2.23;;;20.50;88.80;;;;;;4995402;28;20647;-83
2022/07/04 07:42:29;;;;;;;3.03;1.80;;;20.60;88.40;;;;;;4995427;28;20693;-84
2022/07/04 07:44:56;;;;;;;4.17;1.70;;;20.70;88.90;;;;;;4995395;28;20443;-83
2022/07/04 07:47:21;;;;;;;2.80;2.10;;;20.70;89.50;;;;;;4995572;28;20635;-84
2022/07/04 07:49:47;;;;;;;5.87;1.87;;;20.80;88.80;;;;;;4995155;28;20511;-84
2022/07/04 07:52:14;;;;;;;3.80;1.60;;;20.80;89.00;;;;;;4996536;28;20557;-84
2022/07/04 07:54:40;;;;;;;2.00;1.60;;;20.90;89.00;;;;;;4997940;28;20431;-82
2022/07/04 07:57:06;;;;;;;3.40;1.90;;;21.00;89.10;;;;;;4997407;28;20440;-83
2022/07/04 07:59:31;;;;;;;4.63;2.13;;;21.00;89.00;;;;;;4994341;28;20239;-84
2022/07/04 08:01:57;;;;;;;3.70;1.80;;;21.10;88.60;;;;;;5013867;28;20949;-83
2022/07/04 08:04:35;;;;;;;3.97;2.27;;;21.20;88.40;;;;;;4994234;28;20229;-83
2022/07/04 08:07:03;;;;;;;2.20;1.90;;;21.20;87.40;;;;;;4994182;28;20769;-83
2022/07/04 08:09:29;;;;;;;4.50;1.97;;;21.30;87.10;;;;;;4994743;28;20464;-84
2022/07/04 08:11:55;;;;;;;2.37;1.70;;;21.30;87.00;;;;;;4994743;28;20460;-83
2022/07/04 08:14:20;;;;;;;3.03;1.83;;;21.30;87.00;;;;;;4994433;28;20669;-84
2022/07/04 08:16:46;;;;;;;2.60;2.07;;;21.40;87.10;;;;;;4994645;28;20178;-84
2022/07/04 08:19:11;;;;;;;3.10;2.27;;;21.40;86.40;;;;;;4994666;28;20189;-82
2022/07/04 08:21:37;;;;;;;5.93;2.13;;;21.40;86.90;;;;;;4994486;28;20292;-84
2022/07/04 08:24:03;;;;;;;3.43;1.90;;;21.40;86.80;;;;;;4994297;28;20205;-85
2022/07/04 08:26:29;;;;;;;3.80;2.27;;;21.50;86.70;;;;;;5001331;28;20651;-83
2022/07/04 08:28:57;;;;;;;2.93;2.07;;;21.50;87.00;;;;;;4993234;28;20207;-84
2022/07/04 08:31:24;;;;;;;2.97;2.10;;;21.60;86.70;;;;;;4989976;28;20219;-84
2022/07/04 08:33:50;;;;;;;2.37;1.67;;;21.60;86.10;;;;;;4991200;28;20485;-84
2022/07/04 08:36:19;;;;;;;2.90;2.00;;;21.70;86.10;;;;;;4993484;28;20420;-82
2022/07/04 08:38:45;;;;;;;3.67;1.67;;;21.70;86.00;;;;;;4994033;28;20463;-84
2022/07/04 08:41:11;;;;;;;2.20;1.83;;;21.80;85.10;;;;;;4991316;28;20424;-84
2022/07/04 08:43:39;;;;;;;4.43;1.70;;;21.80;85.40;;;;;;4994317;28;20205;-83
2022/07/04 08:46:05;;;;;;;2.10;1.60;;;21.80;84.50;;;;;;4993817;28;20420;-83
2022/07/04 08:48:32;;;;;;;3.43;1.90;;;21.80;84.60;;;;;;4992755;28;20959;-83
2022/07/04 08:51:12;;;;;;;3.93;1.97;;;21.80;84.70;;;;;;4993397;28;20427;-83
2022/07/04 08:53:42;;;;;;;2.43;1.63;;;21.70;84.20;;;;;;4994162;28;20421;-83
2022/07/04 08:58:54;;;;;;;3.17;1.67;;;21.70;84.60;;;;;;5011139;28;20447;-83
2022/07/04 09:01:21;;;;;;;3.43;1.80;;;21.70;84.40;;;;;;4990530;28;20537;-83
2022/07/04 09:03:46;;;;;;;3.67;1.60;;;21.80;85.40;;;;;;4971956;28;20477;-82
2022/07/04 09:06:12;;;;;;;2.63;1.57;;;21.80;84.00;;;;;;4992500;28;20425;-83
2022/07/04 09:08:39;;;;;;;4.20;1.60;;;21.90;84.10;;;;;;4990721;28;20198;-83
2022/07/04 09:11:06;;;;;;;3.50;1.60;;;22.00;84.40;;;;;;4989780;28;20425;-84
2022/07/04 09:13:32;;;;;;;1.90;1.60;;;22.00;83.70;;;;;;4990393;28;20535;-83
2022/07/04 09:15:58;;;;;;;1.80;1.70;;;22.00;84.20;;;;;;4990693;28;20560;-84
2022/07/04 09:18:35;;;;;;;2.33;1.70;;;22.10;83.50;;;;;;4990399;28;20489;-83
2022/07/04 09:21:03;;;;;;;2.70;1.63;;;22.10;83.40;;;;;;4990760;28;20416;-82
2022/07/04 09:23:33;;;;;;;3.30;1.83;;;22.10;83.20;;;;;;4990638;28;21009;-82
2022/07/04 09:26:18;;;;;;;3.07;1.70;;;22.10;83.60;;;;;;4990691;28;20515;-83
2022/07/04 09:28:49;;;;;;;2.30;1.70;;;22.10;83.60;;;;;;4991211;28;20789;-83
2022/07/04 09:31:24;;;;;;;4.03;1.90;;;22.10;83.40;;;;;;4990040;28;20429;-83
2022/07/04 09:33:53;;;;;;;1.90;1.83;;;22.10;83.40;;;;;;4991443;28;20930;-83
2022/07/04 09:36:41;;;;;;;3.03;1.60;;;22.10;83.80;;;;;;4990309;28;20425;-83
2022/07/04 09:39:21;;;;;;;3.10;1.63;;;22.10;83.50;;;;;;4989488;28;20425;-83
2022/07/04 09:42:03;;;;;;;3.13;1.43;;;22.00;82.20;;;;;;4991866;28;20428;-84
2022/07/04 09:44:43;;;;;;;5.20;2.30;;;22.00;82.80;;;;;;4983985;28;20430;-84
2022/07/04 09:47:27;;;;;;;2.37;1.83;;;22.00;82.90;;;;;;4992225;28;21372;-82
2022/07/04 09:50:02;;;;;;;5.20;1.70;;;22.00;83.60;;;;;;4986998;28;20491;-83
2022/07/04 09:52:30;;;;;;;1.80;1.33;;;22.10;83.20;;;;;;4993571;28;20923;-83
2022/07/04 09:55:05;;;;;;;5.30;1.30;;;22.00;81.00;;;;;;4992594;28;20429;-82
2022/07/04 09:57:32;;;;;;;3.57;1.40;;;22.00;81.80;;;;;;4991289;28;20965;-86
2022/07/04 10:00:26;;;;;;;5.70;1.73;;;22.00;81.90;;;;;;4990100;28;20424;-83
2022/07/04 10:02:54;;;;;;;3.63;1.63;;;22.00;82.00;;;;;;4997131;28;20855;-83
2022/07/04 10:05:26;;;;;;;3.53;1.77;;;22.10;82.20;;;;;;4992453;28;20420;-85
2022/07/04 10:07:53;;;;;;;3.00;1.70;;;22.20;81.70;;;;;;4993981;28;20439;-85
2022/07/04 10:10:26;;;;;;;1.77;1.60;;;22.30;81.10;;;;;;5006483;28;20415;-83
2022/07/04 10:12:53;;;;;;;2.23;1.40;;;22.30;81.10;;;;;;4991795;28;20464;-84
2022/07/04 10:15:19;;;;;;;3.10;1.73;;;22.40;81.60;;;;;;5010842;28;20416;-83
2022/07/04 10:17:46;;;;;;;3.60;1.70;;;22.50;81.20;;;;;;4993404;28;20511;-82
2022/07/04 10:20:12;;;;;;;7.90;1.93;;;22.60;81.30;;;;;;5011477;28;20917;-83
2022/07/04 10:22:38;;;;;;;2.30;1.73;;;22.70;81.20;;;;;;4994784;28;20456;-83
2022/07/04 10:25:05;;;;;;;2.13;1.70;;;22.80;81.20;;;;;;4996256;28;20949;-83
2022/07/04 10:27:31;;;;;;;2.20;1.93;;;22.90;80.40;;;;;;5008123;28;20714;-83
2022/07/04 10:30:03;;;;;;;5.23;1.70;;;23.00;80.00;;;;;;4996108;28;20423;-82
2022/07/04 10:32:30;;;;;;;4.13;1.90;;;23.10;80.30;;;;;;4997117;28;20452;-83
2022/07/04 10:34:55;;;;;;;3.30;1.87;;;23.20;80.80;;;;;;4992584;28;20461;-83
2022/07/04 10:37:21;;;;;;;3.20;1.90;;;23.20;80.60;;;;;;4995261;28;20479;-83
2022/07/04 10:39:48;;;;;;;1.67;1.60;;;23.20;81.30;;;;;;4995963;28;20389;-83
2022/07/04 10:42:29;;;;;;;2.40;2.00;;;23.20;81.60;;;;;;4996086;28;20556;-83
2022/07/04 10:45:00;;;;;;;2.37;1.90;;;23.20;81.60;;;;;;4995463;28;20452;-83
2022/07/04 10:47:30;;;;;;;2.83;1.97;;;23.10;81.60;;;;;;4985039;28;20518;-83
2022/07/04 10:49:56;;;;;;;5.10;1.83;;;23.10;81.20;;;;;;5004171;28;20836;-83
2022/07/04 10:52:22;;;;;;;1.90;1.70;;;23.20;81.40;;;;;;4997373;28;20416;-81
2022/07/04 10:54:48;;;;;;;2.73;1.70;;;23.30;80.60;;;;;;4996364;28;20417;-82
2022/07/04 10:57:21;;;;;;;6.00;2.70;;;23.40;81.10;;;;;;4991742;28;20202;-83
2022/07/04 10:59:53;;;;;;;2.97;2.00;;;23.60;80.60;;;;;;4977996;28;20186;-84
2022/07/04 11:02:26;;;;;;;7.20;2.53;;;23.70;79.30;;;;;;4990945;28;20464;-84
2022/07/04 11:05:00;;;;;;;3.83;1.97;;;23.70;79.60;;;;;;4991458;28;20436;-83
2022/07/04 11:07:35;;;;;;;5.63;2.17;;;23.80;79.90;;;;;;4995736;28;20454;-83
2022/07/04 11:10:13;;;;;;;3.63;1.90;;;23.80;79.80;;;;;;4996040;28;20917;-83
2022/07/04 11:12:54;;;;;;;2.93;1.93;;;23.90;79.90;;;;;;4995732;28;20448;-83
2022/07/04 11:15:41;;;;;;;2.33;2.10;;;24.00;79.50;;;;;;4986083;28;20984;-83
2022/07/04 11:18:12;;;;;;;3.27;1.97;;;24.10;79.20;;;;;;4979689;28;20977;-82
2022/07/04 11:20:43;;;;;;;2.93;1.80;;;24.20;79.10;;;;;;4995309;28;20431;-83
2022/07/04 11:23:14;;;;;;;2.50;2.17;;;24.30;80.20;;;;;;4995022;28;20535;-82
2022/07/04 11:25:42;;;;;;;3.13;1.80;;;24.40;80.40;;;;;;4994262;28;20801;-83
2022/07/04 11:28:28;;;;;;;3.20;2.37;;;24.60;79.10;;;;;;4994763;28;20444;-81
2022/07/04 11:30:56;;;;;;;3.87;2.03;;;24.70;79.40;;;;;;4983045;28;20432;-82
2022/07/04 11:33:24;;;;;;;3.17;2.10;;;24.90;78.90;;;;;;5005853;28;20439;-83
2022/07/04 11:36:14;;;;;;;3.60;2.47;;;25.00;79.30;;;;;;4994593;28;20945;-82
2022/07/04 11:38:53;;;;;;;2.87;2.00;;;25.00;78.30;;;;;;4996052;28;20446;-85
2022/07/04 11:47:00;;;;;;;3.40;2.10;;;24.80;78.50;;;;;;5001938;28;20822;-84
2022/07/04 11:49:26;;;;;;;8.30;2.27;;;24.70;78.70;;;;;;4995167;28;20443;-83
2022/07/04 11:51:52;;;;;;;3.00;1.80;;;24.60;79.30;;;;;;4995236;28;20466;-84
2022/07/04 11:54:18;;;;;;;2.23;2.07;;;24.70;80.70;;;;;;5012912;28;20184;-83
2022/07/04 11:56:44;;;;;;;2.97;1.97;;;24.80;79.10;;;;;;4995342;28;20412;-83
2022/07/04 11:59:12;;;;;;;3.73;2.27;;;25.00;79.90;;;;;;4996837;28;20173;-83
2022/07/04 12:01:39;;;;;;;3.50;2.03;;;25.20;78.40;;;;;;4995921;28;20229;-83
2022/07/04 12:04:18;;;;;;;2.87;2.30;;;25.40;78.40;;;;;;4995605;28;20988;-84
2022/07/04 12:06:48;;;;;;;1.93;1.83;;;25.50;78.80;;;;;;4989176;28;20423;-85
2022/07/04 12:09:18;;;;;;;3.10;2.40;;;25.70;78.20;;;;;;4995337;28;20999;-83
2022/07/04 12:11:58;;;;;;;2.63;2.10;;;25.80;78.20;;;;;;4995309;28;20428;-83
2022/07/04 12:14:27;;;;;;;2.70;2.10;;;25.90;77.90;;;;;;4995290;28;20412;-84
2022/07/04 12:17:16;;;;;;;4.60;2.70;;;26.00;77.00;;;;;;4995572;28;20420;-82
2022/07/04 12:19:55;;;;;;;4.20;2.33;;;26.10;76.30;;;;;;4997873;28;20416;-83
2022/07/04 12:22:31;;;;;;;2.57;2.40;;;26.20;76.20;;;;;;5013010;28;20937;-84
2022/07/04 12:24:58;;;;;;;4.17;2.03;;;26.30;76.40;;;;;;4984569;28;20436;-84
2022/07/04 12:27:25;;;;;;;4.20;2.43;;;26.40;76.10;;;;;;4988112;28;20720;-84
2022/07/04 12:29:53;;;;;;;2.97;2.40;;;26.40;76.20;;;;;;4986674;28;20416;-83
2022/07/04 12:32:19;;;;;;;3.13;2.17;;;26.50;77.20;;;;;;4994226;28;20786;-82
2022/07/04 12:34:46;;;;;;;7.03;1.97;;;26.60;76.90;;;;;;5012886;28;20725;-83
2022/07/04 12:37:14;;;;;;;3.27;2.33;;;26.70;76.00;;;;;;4993977;28;20745;-84
2022/07/04 12:39:41;;;;;;;2.43;2.20;;;26.90;75.50;;;;;;4981869;28;20420;-83
2022/07/04 12:42:08;;;;;;;2.80;2.60;;;27.00;75.70;;;;;;5013098;28;20422;-85
2022/07/04 12:44:34;;;;;;;2.90;2.67;;;27.00;73.80;;;;;;5013639;28;20499;-82
2022/07/04 12:47:00;;;;;;;4.03;2.37;;;27.00;73.00;;;;;;4996176;28;20490;-85
2022/07/04 12:49:26;;;;;;;2.50;2.23;;;27.00;72.30;;;;;;4996446;28;20185;-83
2022/07/04 12:52:02;;;;;;;3.23;2.50;;;27.00;72.60;;;;;;4996902;28;20420;-84
2022/07/04 12:54:28;;;;;;;3.77;2.43;;;27.00;72.60;;;;;;5014558;28;20177;-83
2022/07/04 12:57:21;;;;;;;3.07;2.50;;;26.90;72.60;;;;;;4997069;28;20470;-82
2022/07/04 12:59:46;;;;;;;2.57;2.40;;;26.70;72.60;;;;;;4997500;28;20173;-84
2022/07/04 13:02:14;;;;;;;3.40;2.07;;;26.60;74.30;;;;;;4996850;28;20464;-82
2022/07/04 13:04:40;;;;;;;4.70;1.80;;;26.80;72.70;;;;;;4997967;28;20181;-83